createdAt,value
2019-02-21T16:54:24.836Z,28.00
2019-02-21T16:56:53.337Z,36.40
2019-02-21T16:59:21.847Z,35.97
2019-02-21T17:01:50.396Z,36.70
2019-02-21T17:04:18.936Z,79.57
2019-02-21T17:06:47.404Z,51.20
2019-02-21T17:09:15.958Z,68.87
2019-02-21T17:11:44.459Z,54.50
2019-02-21T17:14:12.958Z,34.03
2019-02-21T17:16:41.567Z,32.37
2019-02-21T17:19:10.096Z,33.77
2019-02-21T17:21:38.606Z,29.60
2019-02-21T17:24:07.177Z,34.13
2019-02-21T17:26:35.682Z,47.47
2019-02-21T17:29:04.199Z,35.43
2019-02-21T17:31:32.774Z,63.80
2019-02-21T17:34:01.277Z,57.60
2019-02-21T17:36:29.779Z,26.07
2019-02-21T17:38:58.318Z,28.43
2019-02-21T17:41:26.856Z,30.77
2019-02-21T17:43:55.352Z,33.40
2019-02-21T17:46:23.899Z,67.07
2019-02-21T17:48:52.406Z,83.73
2019-02-21T17:51:20.905Z,82.23
2019-02-21T17:53:49.531Z,35.87
2019-02-21T17:56:18.288Z,23.73
2019-02-21T17:58:46.799Z,28.30
2019-02-21T18:01:15.363Z,28.13
2019-02-21T18:03:43.868Z,23.77
2019-02-21T18:06:12.371Z,22.03
2019-02-21T18:08:40.915Z,22.60
2019-02-21T18:11:09.429Z,34.53
2019-02-21T18:13:37.929Z,27.20
2019-02-21T18:16:06.537Z,39.87
2019-02-21T18:18:35.026Z,32.73
2019-02-21T18:21:03.523Z,25.90
2019-02-21T18:23:32.073Z,33.30
2019-02-21T18:26:03.709Z,26.50
2019-02-21T18:28:32.217Z,24.50
2019-02-21T18:31:00.773Z,36.93
2019-02-21T18:33:29.274Z,40.97
2019-02-21T18:35:57.780Z,31.87
2019-02-21T18:38:26.336Z,29.90
2019-02-21T18:40:54.935Z,33.37
2019-02-21T18:43:23.424Z,31.53
2019-02-21T18:45:51.973Z,34.70
2019-02-21T18:48:20.475Z,30.43
2019-02-21T18:50:49.029Z,23.57
2019-02-21T18:53:17.570Z,19.17
2019-02-21T18:55:46.086Z,27.03
2019-02-21T18:58:14.590Z,23.93
2019-02-21T19:00:43.160Z,24.47
2019-02-21T19:03:11.666Z,21.97
2019-02-21T19:05:40.219Z,21.67
2019-02-21T19:08:08.765Z,21.33
2019-02-21T19:10:37.510Z,24.17
2019-02-21T19:13:07.808Z,28.07
2019-02-21T19:15:36.758Z,29.20
2019-02-21T19:18:05.280Z,31.30
2019-02-21T19:20:33.782Z,31.57
2019-02-21T19:23:02.343Z,40.37
2019-02-21T19:25:30.853Z,39.47
2019-02-21T19:27:59.402Z,38.43
2019-02-21T19:30:39.979Z,55.37
2019-02-21T19:33:08.477Z,49.83
2019-02-21T19:35:36.979Z,47.07
2019-02-21T19:38:10.322Z,37.97
2019-02-21T19:40:35.780Z,33.57
2019-02-21T19:43:04.256Z,28.30
2019-02-21T19:45:32.806Z,41.93
2019-02-21T19:48:03.917Z,35.97
2019-02-21T19:50:31.545Z,37.17
2019-02-21T19:53:00.103Z,37.47
2019-02-21T19:55:28.607Z,32.33
2019-02-21T19:57:57.103Z,28.63
2019-02-21T20:00:27.779Z,33.00
2019-02-21T20:02:56.286Z,31.03
2019-02-21T20:05:24.797Z,34.47
2019-02-21T20:07:53.432Z,39.90
2019-02-21T20:10:21.951Z,50.10
2019-02-21T20:12:50.462Z,31.00
2019-02-21T20:15:19.022Z,34.67
2019-02-21T20:17:47.525Z,27.97
2019-02-21T20:20:26.922Z,25.27
2019-02-21T20:22:55.432Z,29.87
2019-02-21T20:25:23.944Z,27.77
2019-02-21T20:27:52.491Z,35.63
2019-02-21T20:30:20.998Z,29.03
2019-02-21T20:32:49.503Z,34.33
2019-02-21T20:35:18.084Z,27.63
2019-02-21T20:37:46.596Z,24.77
2019-02-21T20:40:15.093Z,29.27
2019-02-21T20:42:43.654Z,26.00
2019-02-21T20:45:15.327Z,24.40
2019-02-21T20:47:43.833Z,30.03
2019-02-21T20:50:15.333Z,26.13
2019-02-21T20:52:43.831Z,30.27
2019-02-21T20:55:12.340Z,26.17
2019-02-21T20:57:40.893Z,25.77
2019-02-21T21:00:12.196Z,30.33
2019-02-21T21:02:40.711Z,23.30
2019-02-21T21:05:09.259Z,22.10
2019-02-21T21:07:37.778Z,27.77
2019-02-21T21:10:09.441Z,21.93
2019-02-21T21:12:38.009Z,22.63
2019-02-21T21:15:09.531Z,21.40
2019-02-21T21:17:38.271Z,24.93
2019-02-21T21:20:16.563Z,27.70
2019-02-21T21:22:39.692Z,23.07
2019-02-21T21:25:10.936Z,27.33
2019-02-21T21:27:39.480Z,28.93
2019-02-21T21:30:10.491Z,32.53
2019-02-21T21:32:38.990Z,37.63
2019-02-21T21:35:07.562Z,27.60
2019-02-21T21:37:36.067Z,26.17
2019-02-21T21:40:07.026Z,35.73
2019-02-21T21:42:35.608Z,27.17
2019-02-21T21:45:05.412Z,22.87
2019-02-21T21:47:33.918Z,22.33
2019-02-21T21:50:02.474Z,23.37
2019-02-21T21:52:30.982Z,22.83
2019-02-21T21:54:59.491Z,20.17
2019-02-21T21:57:28.047Z,19.57
2019-02-21T21:59:56.599Z,21.57
2019-02-21T22:02:25.056Z,20.53
2019-02-21T22:04:53.561Z,23.97
2019-02-21T22:07:22.062Z,21.57
2019-02-21T22:09:54.006Z,20.00
2019-02-21T22:12:22.557Z,19.80
2019-02-21T22:14:51.084Z,18.93
2019-02-21T22:17:19.613Z,20.80
2019-02-21T22:19:48.138Z,19.90
2019-02-21T22:22:16.695Z,18.57
2019-02-21T22:24:45.212Z,16.63
2019-02-21T22:27:13.731Z,18.63
2019-02-21T22:29:42.272Z,19.40
2019-02-21T22:32:10.789Z,18.27
2019-02-21T22:34:39.344Z,16.37
2019-02-21T22:37:07.871Z,17.93
2019-02-21T22:39:36.385Z,18.83
2019-02-21T22:42:04.906Z,17.27
2019-02-21T22:44:33.432Z,20.43
2019-02-21T22:47:02.001Z,19.43
2019-02-21T22:49:30.526Z,19.83
2019-02-21T22:51:59.044Z,18.80
2019-02-21T22:54:27.566Z,19.07
2019-02-21T22:56:56.076Z,17.30
2019-02-21T22:59:24.656Z,20.17
2019-02-21T23:01:53.161Z,19.13
2019-02-21T23:04:24.451Z,25.03
2019-02-21T23:06:59.202Z,21.17
2019-02-21T23:09:28.269Z,18.27
2019-02-21T23:11:57.064Z,21.87
2019-02-21T23:14:25.607Z,21.07
2019-02-21T23:16:54.110Z,25.87
2019-02-21T23:19:24.200Z,21.63
2019-02-21T23:21:52.834Z,22.70
2019-02-21T23:24:21.333Z,31.03
2019-02-21T23:26:49.884Z,22.03
2019-02-21T23:29:18.391Z,22.57
2019-02-21T23:31:46.886Z,22.33
2019-02-21T23:34:20.108Z,23.93
2019-02-21T23:36:48.650Z,23.10
2019-02-21T23:39:17.155Z,21.87
2019-02-21T23:41:45.668Z,30.73
2019-02-21T23:44:14.173Z,21.23
2019-02-21T23:46:42.736Z,21.73
2019-02-21T23:49:11.236Z,25.33
2019-02-21T23:51:39.736Z,21.60
2019-02-21T23:54:08.266Z,28.80
2019-02-21T23:56:36.752Z,27.20
2019-02-21T23:59:05.297Z,21.83
